Etusivu
METAR-TAF:

METAR-TAF

Lentoasemat :

Ørland, Norja

Leveyspiiri: 63-42N, Pituuspiiri: 009-36E, korkeus merenpinnasta: 0 m

Tämänhetkinen sää

Tämä raportti tehtiin 39 minuuttia sitten, kello 14.50 UTC
Tuuli 7 kn lännestä/luoteesta
Lämpötila 18°C
Kosteus 73%
Ilmanpaine 1025 hPa
Näkyvyys 10 km tai enemmän
Muutamia pilviä 2500 ft:n korkeudessa
Hajanaisia pilviä 6500 ft:n korkeudessa

METAR: ENOL 111450Z 29007KT 9999 FEW025 SCT065 18/13 Q1025 NOSIG

Aika: 17:29 (15:29 UTC)

Sääennuste

Ennuste voimassa 11. päivästä klo 12 UTC - 12. päivään klo 12 UTC
Tuuli 10 kn luoteesta
Näkyvyys 10 km tai enemmän
ei pilviä alle 1500 m:ssä eikä cumulonimbus-pilviä
Tulossa
11. päivästä klo 18 UTC - 11. päivään klo 21 UTC
Tuuli 5 kn eri suunnista
Todennäköisyys 30%
11. päivästä klo 21 UTC - 12. päivään klo 07 UTC
Näkyvyys: 3000 m
Hajonneita pilviä 400 ft:n korkeudessa
utua

TAF: ENOL 1112/1212 31010KT CAVOK BECMG 1118/1121 VRB05KT PROB30 1121/1207 3000 BR BKN004

Säähavainnot ja -ennusteet yli 4000 lentoasemalta (METAR- ja TAF-raportit).

Käytössä olevat sääasemat on merkitty karttaan keltaisilla ja punaisilla pisteillä.

Aseta hiiri pisteen päälle nähdäksesi sääaseman nimen.

Klikkaa sitten nähdäksesi säähavainnot ja -ennusteet.

Kartan vaihtaminen: klikkaa mustalla rastilla varustettuja vihreitä pisteitä, niin voit zoomata sisään; viivalla varustettua vihreää pistettä, niin voit zoomata ulos tai vihreitä nuolia, niin pääset viereisille kartoille.


METAR-TAF: